| time (UTC) | temp F | wind direction | speed knots | gust knots | rain 1hr in | rain 24hr in | rain mn in | humidity % | barometer mb |
| 20260906225624 | 82 | 234 | 4.3 | 5.2 | 0.00 | 0.00 | 0.00 | 25 | 1022.1 |
| 20260906225121 | 82 | 260 | 6.1 | 7.0 | 0.00 | 0.00 | 0.00 | 25 | 1022.3 |
| 20260906224615 | 83 | 269 | 4.3 | 6.1 | 0.00 | 0.00 | 0.00 | 24 | 1021.9 |
| 20260906224112 | 84 | 213 | 5.2 | 6.1 | 0.00 | 0.00 | 0.00 | 23 | 1022.3 |
| 20260906223608 | 83 | 281 | 1.7 | 1.7 | 0.00 | 0.00 | 0.00 | 24 | 1021.9 |
| 20260906223107 | 83 | 223 | 5.2 | 7.0 | 0.00 | 0.00 | 0.00 | 24 | 1022.3 |
| 20260906222606 | 84 | 262 | 5.2 | 7.0 | 0.00 | 0.00 | 0.00 | 24 | 1022.2 |
| 20260906222104 | 83 | 262 | 4.3 | 6.1 | 0.00 | 0.00 | 0.00 | 24 | 1021.9 |
| 20260906221603 | 83 | 243 | 4.3 | 6.1 | 0.00 | 0.00 | 0.00 | 25 | 1021.9 |
| 20260906221058 | 84 | 65 | 2.6 | 2.6 | 0.00 | 0.00 | 0.00 | 24 | 1022.3 |
| 20260906220553 | 85 | 251 | 4.3 | 5.2 | 0.00 | 0.00 | 0.00 | 22 | 1021.8 |
| 20260906220048 | 86 | 306 | 3.5 | 6.1 | 0.00 | 0.00 | 0.00 | 22 | 1022.1 |
| 20260906215547 | 85 | 291 | 3.5 | 5.2 | 0.00 | 0.00 | 0.00 | 23 | 1022.4 |
| 20260906215045 | 84 | 223 | 2.6 | 4.3 | 0.00 | 0.00 | 0.00 | 22 | 1022.3 |
| 20260906214544 | 84 | 229 | 2.6 | 2.6 | 0.00 | 0.00 | 0.00 | 23 | 1022.3 |
| 20260906214039 | 86 | 280 | 1.7 | 1.7 | 0.00 | 0.00 | 0.00 | 24 | 1022.2 |
| 20260906213538 | 85 | 280 | 0.9 | 1.7 | 0.00 | 0.00 | 0.00 | 22 | 1022.6 |
| 20260906213033 | 84 | 265 | 1.7 | 1.7 | 0.00 | 0.00 | 0.00 | 22 | 1022.4 |
| 20260906212526 | 86 | 248 | 5.2 | 7.0 | 0.00 | 0.00 | 0.00 | 21 | 1022.3 |
| 20260906212022 | 86 | 243 | 5.2 | 7.0 | 0.00 | 0.00 | 0.00 | 21 | 1022.6 |
| 20260906211516 | 86 | 137 | 4.3 | 5.2 | 0.00 | 0.00 | 0.00 | 20 | 1022.9 |
| 20260906211011 | 86 | 230 | 2.6 | 2.6 | 0.00 | 0.00 | 0.00 | 21 | 1023.1 |
| 20260906210507 | 85 | 306 | 3.5 | 4.3 | 0.00 | 0.00 | 0.00 | 21 | 1023.1 |
| 20260906210006 | 85 | 219 | 5.2 | 6.1 | 0.00 | 0.00 | 0.00 | 20 | 1022.8 |
| 20260906205502 | 86 | 271 | 7.8 | 9.6 | 0.00 | 0.00 | 0.00 | 20 | 1023.1 |
| 20260906204958 | 87 | 245 | 4.3 | 6.1 | 0.00 | 0.00 | 0.00 | 20 | 1023.2 |
| 20260906204457 | 86 | 248 | 2.6 | 4.3 | 0.00 | 0.00 | 0.00 | 21 | 1023.1 |
| 20260906203957 | 84 | 255 | 3.5 | 4.3 | 0.00 | 0.00 | 0.00 | 21 | 1023.2 |
| 20260906203452 | 84 | 241 | 1.7 | 1.7 | 0.00 | 0.00 | 0.00 | 21 | 1023.2 |
| 20260906202950 | 85 | 232 | 6.1 | 7.0 | 0.00 | 0.00 | 0.00 | 22 | 1023.8 |
| 20260906202448 | 85 | 256 | 7.8 | 8.7 | 0.00 | 0.00 | 0.00 | 22 | 1023.4 |
| 20260906201943 | 85 | 275 | 5.2 | 6.1 | 0.00 | 0.00 | 0.00 | 23 | 1023.5 |
| 20260906201438 | 85 | 225 | 4.3 | 7.0 | 0.00 | 0.00 | 0.00 | 23 | 1023.4 |
| 20260906200933 | 86 | 291 | 3.5 | 5.2 | 0.00 | 0.00 | 0.00 | 23 | 1023.5 |
| 20260906200429 | 86 | 263 | 4.3 | 5.2 | 0.00 | 0.00 | 0.00 | 24 | 1023.5 |
| 20260906195929 | 85 | 223 | 3.5 | 5.2 | 0.00 | 0.00 | 0.00 | 25 | 1023.4 |
| 20260906195425 | 84 | 88 | 2.6 | 2.6 | 0.00 | 0.00 | 0.00 | 24 | 1023.7 |
| 20260906194922 | 84 | 261 | 2.6 | 2.6 | 0.00 | 0.00 | 0.00 | 25 | 1023.8 |
| 20260906194417 | 84 | 282 | 3.5 | 5.2 | 0.00 | 0.00 | 0.00 | 27 | 1023.9 |
| 20260906193912 | 84 | 269 | 1.7 | 1.7 | 0.00 | 0.00 | 0.00 | 26 | 1023.9 |
| 20260906193407 | 83 | 273 | 0.9 | 0.9 | 0.00 | 0.00 | 0.00 | 26 | 1024.3 |
| 20260906192903 | 84 | 301 | 2.6 | 2.6 | 0.00 | 0.00 | 0.00 | 26 | 1024.0 |
| 20260906192402 | 83 | 313 | 2.6 | 4.3 | 0.00 | 0.00 | 0.00 | 26 | 1024.2 |
| 20260906191856 | 84 | 294 | 4.3 | 5.2 | 0.00 | 0.00 | 0.00 | 26 | 1024.2 |
| 20260906191350 | 83 | 252 | 1.7 | 1.7 | 0.00 | 0.00 | 0.00 | 26 | 1024.4 |
| 20260906190850 | 83 | 316 | 2.6 | 2.6 | 0.00 | 0.00 | 0.00 | 26 | 1024.5 |
| 20260906190344 | 83 | 280 | 0.9 | 0.9 | 0.00 | 0.00 | 0.00 | 26 | 1024.7 |
| 20260906185839 | 83 | 252 | 0.9 | 1.7 | 0.00 | 0.00 | 0.00 | 25 | 1024.5 |
| 20260906185338 | 82 | 269 | 0.9 | 0.9 | 0.00 | 0.00 | 0.00 | 26 | 1024.5 |
| 20260906184837 | 82 | 225 | 0.0 | 0.0 | 0.00 | 0.00 | 0.00 | 26 | 1024.9 |
| 20260906184332 | 81 | 215 | 2.6 | 4.3 | 0.00 | 0.00 | 0.00 | 26 | 1025.0 |
| 20260906183828 | 82 | 246 | 3.5 | 5.2 | 0.00 | 0.00 | 0.00 | 26 | 1025.0 |
| 20260906183324 | 82 | 273 | 5.2 | 7.0 | 0.00 | 0.00 | 0.00 | 26 | 1025.0 |
| 20260906182819 | 82 | 274 | 0.9 | 0.9 | 0.00 | 0.00 | 0.00 | 26 | 1025.2 |
| 20260906182314 | 81 | 246 | 4.3 | 6.1 | 0.00 | 0.00 | 0.00 | 27 | 1025.2 |
| 20260906181809 | 81 | 246 | 3.5 | 4.3 | 0.00 | 0.00 | 0.00 | 28 | 1025.3 |
| 20260906181305 | 80 | 242 | 2.6 | 4.3 | 0.00 | 0.00 | 0.00 | 28 | 1025.5 |
| 20260906180800 | 79 | 220 | 3.5 | 4.3 | 0.00 | 0.00 | 0.00 | 29 | 1025.5 |
| 20260906180255 | 79 | 196 | 2.6 | 2.6 | 0.00 | 0.00 | 0.00 | 30 | 1025.5 |
| 20260906175752 | 79 | 271 | 2.6 | 2.6 | 0.00 | 0.00 | 0.00 | 31 | 1026.0 |
| 20260906175249 | 80 | 234 | 1.7 | 2.6 | 0.00 | 0.00 | 0.00 | 29 | 1026.0 |
| 20260906174746 | 79 | 249 | 2.6 | 2.6 | 0.00 | 0.00 | 0.00 | 31 | 1026.4 |
| 20260906174241 | 80 | 243 | 2.6 | 2.6 | 0.00 | 0.00 | 0.00 | 30 | 1026.3 |
| 20260906173736 | 79 | 280 | 0.9 | 1.7 | 0.00 | 0.00 | 0.00 | 30 | 1026.3 |
| 20260906173232 | 79 | 294 | 2.6 | 4.3 | 0.00 | 0.00 | 0.00 | 29 | 1026.0 |
| 20260906172731 | 79 | 285 | 2.6 | 4.3 | 0.00 | 0.00 | 0.00 | 32 | 1026.2 |
| 20260906172226 | 78 | 254 | 3.5 | 4.3 | 0.00 | 0.00 | 0.00 | 32 | 1026.6 |
| 20260906171721 | 77 | 276 | 0.9 | 1.7 | 0.00 | 0.00 | 0.00 | 32 | 1026.8 |
| 20260906171217 | 78 | 236 | 1.7 | 1.7 | 0.00 | 0.00 | 0.00 | 32 | 1026.9 |
| 20260906170712 | 77 | 259 | 0.0 | 0.0 | 0.00 | 0.00 | 0.00 | 34 | 1026.9 |
| 20260906170207 | 77 | 298 | 1.7 | 1.7 | 0.00 | 0.00 | 0.00 | 33 | 1027.0 |
| 20260906165703 | 77 | 275 | 0.0 | 0.0 | 0.00 | 0.00 | 0.00 | 34 | 1027.1 |
| 20260906165158 | 75 | 292 | 1.7 | 1.7 | 0.00 | 0.00 | 0.00 | 34 | 1027.0 |
| 20260906164656 | 75 | 271 | 0.0 | 0.0 | 0.00 | 0.00 | 0.00 | 34 | 1027.1 |
| 20260906164153 | 73 | 97 | 0.0 | 0.9 | 0.00 | 0.00 | 0.00 | 36 | 1027.1 |
| 20260906163648 | 73 | 325 | 2.6 | 2.6 | 0.00 | 0.00 | 0.00 | 36 | 1027.4 |
| 20260906163144 | 73 | 101 | 0.0 | 0.0 | 0.00 | 0.00 | 0.00 | 37 | 1027.1 |
| 20260906162641 | 73 | 83 | 0.9 | 0.9 | 0.00 | 0.00 | 0.00 | 38 | 1027.1 |
| 20260906162140 | 71 | 279 | 0.0 | 0.0 | 0.00 | 0.00 | 0.00 | 40 | 1027.4 |
| 20260906161636 | 70 | 288 | 0.9 | 0.9 | 0.00 | 0.00 | 0.00 | 39 | 1027.4 |
| 20260906161134 | 70 | 100 | 0.9 | 0.9 | 0.00 | 0.00 | 0.00 | 41 | 1027.8 |
| 20260906160633 | 69 | 297 | 1.7 | 1.7 | 0.00 | 0.00 | 0.00 | 42 | 1027.5 |
| 20260906160133 | 69 | 276 | 0.0 | 0.9 | 0.00 | 0.00 | 0.00 | 41 | 1027.8 |
| 20260906155630 | 69 | 105 | 0.0 | 0.0 | 0.00 | 0.00 | 0.00 | 43 | 1027.9 |
| 20260906155126 | 69 | 325 | 0.0 | 0.0 | 0.00 | 0.00 | 0.00 | 42 | 1027.5 |
| 20260906154622 | 68 | 85 | 1.7 | 1.7 | 0.00 | 0.00 | 0.00 | 44 | 1027.8 |
| 20260906154121 | 67 | 292 | 0.9 | 0.9 | 0.00 | 0.00 | 0.00 | 45 | 1027.6 |
| 20260906153620 | 66 | 35 | 1.7 | 1.7 | 0.00 | 0.00 | 0.00 | 45 | 1027.8 |
| 20260906153115 | 66 | 111 | 1.7 | 1.7 | 0.00 | 0.00 | 0.00 | 47 | 1027.9 |
| 20260906152614 | 67 | 297 | 0.9 | 0.9 | 0.00 | 0.00 | 0.00 | 43 | 1027.9 |
| 20260906152109 | 66 | 272 | 0.0 | 0.0 | 0.00 | 0.00 | 0.00 | 43 | 1027.9 |
| 20260906151604 | 64 | 299 | 0.9 | 0.9 | 0.00 | 0.00 | 0.00 | 47 | 1028.1 |
| 20260906151100 | 64 | 338 | 0.0 | 0.9 | 0.00 | 0.00 | 0.00 | 49 | 1028.0 |
| 20260906150555 | 62 | 298 | 0.9 | 0.9 | 0.00 | 0.00 | 0.00 | 53 | 1028.1 |
| 20260906150050 | 62 | 301 | 0.9 | 0.9 | 0.00 | 0.00 | 0.00 | 54 | 1028.1 |
| 20260906145549 | 62 | 82 | 0.0 | 0.9 | 0.00 | 0.00 | 0.00 | 54 | 1028.6 |
| 20260906145044 | 61 | 315 | 0.9 | 0.9 | 0.00 | 0.00 | 0.00 | 52 | 1028.3 |
| 20260906144538 | 59 | 315 | 0.0 | 0.9 | 0.00 | 0.00 | 0.00 | 55 | 1028.5 |
| 20260906144034 | 57 | 96 | 0.0 | 0.0 | 0.00 | 0.00 | 0.00 | 59 | 1028.4 |
| 20260906143528 | 57 | 103 | 0.0 | 0.9 | 0.00 | 0.00 | 0.00 | 61 | 1028.3 |
| 20260906143025 | 59 | 298 | 0.0 | 0.0 | 0.00 | 0.00 | 0.00 | 57 | 1028.4 |
| 20260906142519 | 59 | 94 | 0.0 | 0.0 | 0.00 | 0.00 | 0.00 | 56 | 1028.4 |
| 20260906142015 | 58 | 111 | 0.0 | 0.0 | 0.00 | 0.00 | 0.00 | 60 | 1028.5 |
| 20260906141514 | 56 | 94 | 0.0 | 0.0 | 0.00 | 0.00 | 0.00 | 64 | 1028.4 |
| 20260906141009 | 56 | 330 | 0.0 | 0.0 | 0.00 | 0.00 | 0.00 | 63 | 1028.5 |
| 20260906140503 | 56 | 271 | 0.0 | 0.0 | 0.00 | 0.00 | 0.00 | 63 | 1028.6 |
| 20260906140001 | 54 | 97 | 0.0 | 0.0 | 0.00 | 0.00 | 0.00 | 67 | 1028.8 |
| 20260906135459 | 54 | 290 | 0.0 | 0.0 | 0.00 | 0.00 | 0.00 | 68 | 1028.8 |
| 20260906134955 | 53 | 275 | 0.0 | 0.0 | 0.00 | 0.00 | 0.00 | 66 | 1028.8 |
| 20260906134450 | 52 | 271 | 0.9 | 2.6 | 0.00 | 0.00 | 0.00 | 69 | 1028.9 |
| 20260906133945 | 50 | 207 | 0.0 | 0.9 | 0.00 | 0.00 | 0.00 | 76 | 1028.6 |
| 20260906133441 | 48 | 275 | 0.0 | 0.9 | 0.00 | 0.00 | 0.00 | 80 | 1028.6 |
| 20260906132936 | 47 | 269 | 0.0 | 0.0 | 0.00 | 0.00 | 0.00 | 81 | 1028.6 |
| 20260906132431 | 46 | 322 | 0.0 | 0.9 | 0.00 | 0.00 | 0.00 | 81 | 1028.5 |
| 20260906131927 | 46 | 121 | 0.0 | 0.0 | 0.00 | 0.00 | 0.00 | 81 | 1028.3 |
| 20260906131422 | 46 | 264 | 0.0 | 0.0 | 0.00 | 0.00 | 0.00 | 81 | 1028.0 |
| 20260906130918 | 47 | 280 | 0.0 | 0.0 | 0.00 | 0.00 | 0.00 | 81 | 1028.1 |
| 20260906130416 | 47 | 62 | 0.0 | 0.0 | 0.00 | 0.00 | 0.00 | 79 | 1028.4 |
| 20260906125911 | 46 | 262 | 0.0 | 0.0 | 0.00 | 0.00 | 0.00 | 78 | 1028.0 |
| 20260906125408 | 46 | 260 | 0.0 | 0.0 | 0.00 | 0.00 | 0.00 | 77 | 1027.9 |
| 20260906124903 | 46 | 264 | 0.0 | 0.0 | 0.00 | 0.00 | 0.00 | 80 | 1028.1 |
| 20260906124359 | 46 | 263 | 0.0 | 0.0 | 0.00 | 0.00 | 0.00 | 79 | 1027.9 |
| 20260906123858 | 46 | 261 | 0.0 | 0.0 | 0.00 | 0.00 | 0.00 | 80 | 1027.8 |
| 20260906123353 | 46 | 262 | 0.0 | 0.0 | 0.00 | 0.00 | 0.00 | 76 | 1027.5 |
| 20260906122852 | 46 | 249 | 0.9 | 0.9 | 0.00 | 0.00 | 0.00 | 77 | 1027.8 |
| 20260906122347 | 47 | 269 | 0.0 | 0.0 | 0.00 | 0.00 | 0.00 | 80 | 1027.9 |
| 20260906121844 | 47 | 270 | 0.0 | 0.0 | 0.00 | 0.00 | 0.00 | 79 | 1027.8 |
| 20260906121340 | 47 | 269 | 0.0 | 0.0 | 0.00 | 0.00 | 0.00 | 79 | 1027.8 |
| 20260906120836 | 47 | 268 | 0.0 | 0.0 | 0.00 | 0.00 | 0.00 | 79 | 1027.8 |
| 20260906120331 | 47 | 260 | 0.0 | 0.9 | 0.00 | 0.00 | 0.00 | 80 | 1027.8 |
| 20260906115827 | 47 | 295 | 0.9 | 0.9 | 0.00 | 0.00 | 0.00 | 81 | 1027.9 |
| 20260906115323 | 48 | 272 | 0.0 | 0.9 | 0.00 | 0.00 | 0.00 | 78 | 1027.9 |
| 20260906114822 | 48 | 264 | 0.0 | 0.0 | 0.00 | 0.00 | 0.00 | 75 | 1027.6 |
| 20260906114317 | 48 | 263 | 0.0 | 0.0 | 0.00 | 0.00 | 0.00 | 77 | 1027.8 |
| 20260906113812 | 48 | 262 | 0.0 | 0.0 | 0.00 | 0.00 | 0.00 | 78 | 1027.8 |
| 20260906113311 | 48 | 326 | 0.9 | 0.9 | 0.00 | 0.00 | 0.00 | 81 | 1027.6 |
| 20260906112807 | 48 | 267 | 0.0 | 0.0 | 0.00 | 0.00 | 0.00 | 79 | 1027.8 |
| 20260906112306 | 48 | 262 | 0.0 | 0.0 | 0.00 | 0.00 | 0.00 | 75 | 1027.6 |
| 20260906111803 | 48 | 262 | 0.0 | 0.0 | 0.00 | 0.00 | 0.00 | 76 | 1027.8 |
| 20260906111301 | 47 | 256 | 0.9 | 0.9 | 0.00 | 0.00 | 0.00 | 78 | 1027.6 |
| 20260906110757 | 47 | 268 | 0.0 | 0.0 | 0.00 | 0.00 | 0.00 | 79 | 1027.8 |
| 20260906110253 | 47 | 267 | 0.0 | 0.0 | 0.00 | 0.00 | 0.00 | 80 | 1027.8 |
| 20260906105752 | 48 | 319 | 0.9 | 0.9 | 0.00 | 0.00 | 0.00 | 78 | 1027.6 |
| 20260906105248 | 48 | 263 | 0.0 | 0.0 | 0.00 | 0.00 | 0.00 | 75 | 1027.8 |
| 20260906104743 | 48 | 262 | 0.0 | 0.0 | 0.00 | 0.00 | 0.00 | 76 | 1027.9 |
| 20260906104242 | 48 | 268 | 0.0 | 0.9 | 0.00 | 0.00 | 0.00 | 76 | 1027.8 |
| 20260906103740 | 48 | 272 | 0.0 | 0.0 | 0.00 | 0.00 | 0.00 | 78 | 1027.6 |
| 20260906103234 | 48 | 271 | 0.0 | 0.0 | 0.00 | 0.00 | 0.00 | 77 | 1027.9 |
| 20260906102730 | 48 | 271 | 0.0 | 0.0 | 0.00 | 0.00 | 0.00 | 76 | 1027.8 |
| 20260906102229 | 48 | 263 | 0.0 | 0.0 | 0.00 | 0.00 | 0.00 | 75 | 1027.9 |
| 20260906101724 | 48 | 266 | 0.0 | 0.0 | 0.00 | 0.00 | 0.00 | 75 | 1027.4 |
| 20260906101219 | 48 | 290 | 0.0 | 0.0 | 0.00 | 0.00 | 0.00 | 76 | 1027.5 |
| 20260906100715 | 47 | 269 | 0.0 | 0.0 | 0.00 | 0.00 | 0.00 | 77 | 1027.6 |
| 20260906100214 | 47 | 269 | 0.0 | 0.0 | 0.00 | 0.00 | 0.00 | 79 | 1027.6 |
| 20260906095709 | 47 | 270 | 0.0 | 0.0 | 0.00 | 0.00 | 0.00 | 77 | 1027.5 |
| 20260906095204 | 48 | 274 | 0.0 | 0.0 | 0.00 | 0.00 | 0.00 | 77 | 1027.1 |
| 20260906094703 | 48 | 263 | 0.0 | 0.0 | 0.00 | 0.00 | 0.00 | 75 | 1027.5 |
| 20260906094159 | 48 | 258 | 0.0 | 0.9 | 0.00 | 0.00 | 0.00 | 74 | 1027.3 |
| 20260906093655 | 48 | 265 | 0.0 | 0.0 | 0.00 | 0.00 | 0.00 | 74 | 1027.3 |
| 20260906093150 | 48 | 287 | 0.9 | 0.9 | 0.00 | 0.00 | 0.00 | 76 | 1027.1 |
| 20260906092645 | 48 | 272 | 0.0 | 0.0 | 0.00 | 0.00 | 0.00 | 77 | 1027.3 |
| 20260906092144 | 48 | 262 | 0.0 | 0.0 | 0.00 | 0.00 | 0.00 | 75 | 1027.3 |
| 20260906091641 | 49 | 268 | 0.0 | 0.0 | 0.00 | 0.00 | 0.00 | 75 | 1027.3 |
| 20260906091137 | 48 | 256 | 0.9 | 0.9 | 0.00 | 0.00 | 0.00 | 74 | 1027.3 |
| 20260906090632 | 48 | 263 | 0.0 | 0.9 | 0.00 | 0.00 | 0.00 | 77 | 1027.1 |
| 20260906090126 | 48 | 270 | 0.0 | 0.0 | 0.00 | 0.00 | 0.00 | 79 | 1027.4 |
| 20260906085626 | 48 | 267 | 0.0 | 0.0 | 0.00 | 0.00 | 0.00 | 78 | 1027.3 |
| 20260906085120 | 48 | 268 | 0.0 | 0.0 | 0.00 | 0.00 | 0.00 | 79 | 1027.3 |
| 20260906084615 | 49 | 284 | 0.0 | 0.9 | 0.00 | 0.00 | 0.00 | 78 | 1027.1 |
| 20260906084114 | 49 | 265 | 0.0 | 0.0 | 0.00 | 0.00 | 0.00 | 71 | 1027.1 |
| 20260906083610 | 49 | 266 | 0.0 | 0.0 | 0.00 | 0.00 | 0.00 | 71 | 1027.0 |
| 20260906083109 | 49 | 259 | 0.0 | 0.0 | 0.00 | 0.00 | 0.00 | 71 | 1027.3 |
| 20260906082605 | 49 | 270 | 0.0 | 0.0 | 0.00 | 0.00 | 0.00 | 73 | 1027.1 |
| 20260906082100 | 50 | 272 | 0.0 | 0.0 | 0.00 | 0.00 | 0.00 | 73 | 1027.1 |
| 20260906081556 | 50 | 279 | 0.0 | 0.0 | 0.00 | 0.00 | 0.00 | 73 | 1027.3 |
| 20260906081051 | 50 | 269 | 0.0 | 0.0 | 0.00 | 0.00 | 0.00 | 71 | 1027.0 |
| 20260906080548 | 51 | 263 | 0.0 | 0.0 | 0.00 | 0.00 | 0.00 | 67 | 1027.1 |
| 20260906080043 | 51 | 263 | 0.0 | 0.0 | 0.00 | 0.00 | 0.00 | 68 | 1027.1 |
| 20260906075537 | 51 | 267 | 0.0 | 0.0 | 0.00 | 0.00 | 0.00 | 68 | 1027.1 |
| 20260906075032 | 51 | 284 | 0.9 | 0.9 | 0.00 | 0.00 | 0.00 | 70 | 1027.3 |
| 20260906074527 | 51 | 266 | 0.0 | 0.0 | 0.00 | 0.00 | 0.00 | 68 | 1027.1 |
| 20260906074025 | 51 | 266 | 0.0 | 0.0 | 0.00 | 0.00 | 0.00 | 70 | 1027.1 |
| 20260906073521 | 51 | 268 | 0.0 | 0.0 | 0.00 | 0.00 | 0.00 | 71 | 1027.1 |
| 20260906073017 | 51 | 278 | 0.0 | 0.9 | 0.00 | 0.00 | 0.00 | 70 | 1027.0 |
| 20260906072511 | 52 | 260 | 0.0 | 0.0 | 0.00 | 0.00 | 0.00 | 63 | 1027.0 |
| 20260906072008 | 52 | 270 | 0.0 | 0.0 | 0.00 | 0.00 | 0.00 | 68 | 1027.0 |
| 20260906071504 | 52 | 265 | 0.0 | 0.0 | 0.00 | 0.00 | 0.00 | 66 | 1027.1 |
| 20260906070959 | 53 | 264 | 0.0 | 0.0 | 0.00 | 0.00 | 0.00 | 63 | 1027.3 |
| 20260906070455 | 53 | 256 | 0.0 | 0.0 | 0.00 | 0.00 | 0.00 | 64 | 1027.1 |
| 20260906065950 | 53 | 241 | 0.9 | 1.7 | 0.00 | 0.00 | 0.00 | 63 | 1027.1 |
| 20260906065449 | 53 | 269 | 0.0 | 0.0 | 0.00 | 0.00 | 0.00 | 64 | 1027.0 |
| 20260906064945 | 53 | 273 | 0.0 | 0.0 | 0.00 | 0.00 | 0.00 | 69 | 1026.9 |
| 20260906064441 | 53 | 264 | 0.0 | 0.0 | 0.00 | 0.00 | 0.00 | 66 | 1026.9 |
| 20260906063936 | 53 | 264 | 0.0 | 0.0 | 0.00 | 0.00 | 0.00 | 63 | 1027.1 |
| 20260906063431 | 53 | 273 | 0.0 | 0.0 | 0.00 | 0.00 | 0.00 | 70 | 1027.0 |
| 20260906062926 | 54 | 265 | 0.0 | 0.0 | 0.00 | 0.00 | 0.00 | 66 | 1026.9 |
| 20260906062421 | 54 | 273 | 0.0 | 0.0 | 0.00 | 0.00 | 0.00 | 68 | 1027.1 |
| 20260906061916 | 54 | 274 | 0.0 | 0.0 | 0.00 | 0.00 | 0.00 | 66 | 1027.0 |
| 20260906061412 | 55 | 290 | 0.9 | 1.7 | 0.00 | 0.00 | 0.00 | 62 | 1027.0 |
| 20260906060906 | 55 | 262 | 0.0 | 0.0 | 0.00 | 0.00 | 0.00 | 60 | 1026.9 |
| 20260906060404 | 55 | 261 | 0.0 | 0.0 | 0.00 | 0.00 | 0.00 | 65 | 1026.6 |
| 20260906055859 | 55 | 273 | 0.0 | 0.0 | 0.00 | 0.00 | 0.00 | 66 | 1026.5 |
| 20260906055355 | 56 | 263 | 0.0 | 0.0 | 0.00 | 0.00 | 0.00 | 60 | 1026.6 |
| 20260906054850 | 56 | 254 | 0.0 | 0.0 | 0.00 | 0.00 | 0.00 | 58 | 1026.6 |
| 20260906054345 | 56 | 260 | 0.9 | 0.9 | 0.00 | 0.00 | 0.00 | 56 | 1026.8 |
| 20260906053841 | 57 | 267 | 0.0 | 0.0 | 0.00 | 0.00 | 0.00 | 57 | 1026.8 |
| 20260906053337 | 57 | 251 | 0.9 | 0.9 | 0.00 | 0.00 | 0.00 | 55 | 1026.6 |
| 20260906052832 | 57 | 258 | 0.9 | 0.9 | 0.00 | 0.00 | 0.00 | 55 | 1026.6 |
| 20260906052329 | 57 | 266 | 0.0 | 0.0 | 0.00 | 0.00 | 0.00 | 56 | 1026.5 |
| 20260906051825 | 57 | 269 | 0.0 | 0.0 | 0.00 | 0.00 | 0.00 | 60 | 1026.6 |
| 20260906051325 | 58 | 252 | 0.9 | 0.9 | 0.00 | 0.00 | 0.00 | 52 | 1026.6 |
| 20260906050821 | 58 | 241 | 0.9 | 1.7 | 0.00 | 0.00 | 0.00 | 51 | 1026.8 |
| 20260906050316 | 59 | 255 | 0.0 | 0.9 | 0.00 | 0.00 | 0.00 | 51 | 1026.4 |
| 20260906045814 | 59 | 255 | 0.0 | 0.0 | 0.00 | 0.00 | 0.00 | 52 | 1026.6 |
| 20260906045309 | 60 | 270 | 0.0 | 0.0 | 0.00 | 0.00 | 0.00 | 59 | 1026.9 |
| 20260906044805 | 60 | 256 | 0.0 | 0.0 | 0.00 | 0.00 | 0.00 | 50 | 1026.8 |
| 20260906044259 | 60 | 256 | 0.0 | 0.0 | 0.00 | 0.00 | 0.00 | 52 | 1026.5 |
| 20260906043755 | 60 | 255 | 0.0 | 0.0 | 0.00 | 0.00 | 0.00 | 53 | 1026.3 |
| 20260906043252 | 60 | 263 | 0.0 | 0.0 | 0.00 | 0.00 | 0.00 | 53 | 1026.6 |
| 20260906042751 | 60 | 263 | 0.0 | 0.0 | 0.00 | 0.00 | 0.00 | 54 | 1026.4 |
| 20260906042250 | 60 | 262 | 0.0 | 0.0 | 0.00 | 0.00 | 0.00 | 51 | 1026.5 |
| 20260906041746 | 60 | 262 | 0.0 | 0.0 | 0.00 | 0.00 | 0.00 | 51 | 1026.8 |
| 20260906041241 | 60 | 262 | 0.0 | 0.0 | 0.00 | 0.00 | 0.00 | 51 | 1026.8 |
| 20260906040736 | 60 | 269 | 0.0 | 0.0 | 0.00 | 0.00 | 0.00 | 52 | 1026.6 |
| 20260906040231 | 59 | 262 | 0.0 | 0.0 | 0.00 | 0.00 | 0.00 | 53 | 1026.5 |
| 20260906035727 | 60 | 258 | 0.9 | 0.9 | 0.00 | 0.00 | 0.00 | 53 | 1026.4 |
| 20260906035223 | 60 | 271 | 0.0 | 0.0 | 0.00 | 0.00 | 0.00 | 56 | 1026.6 |
| 20260906034722 | 60 | 258 | 0.0 | 0.0 | 0.00 | 0.00 | 0.00 | 50 | 1026.2 |
| 20260906034217 | 60 | 255 | 0.9 | 0.9 | 0.00 | 0.00 | 0.00 | 49 | 1026.5 |
| 20260906033713 | 60 | 263 | 0.0 | 0.0 | 0.00 | 0.00 | 0.00 | 51 | 1026.4 |
| 20260906033213 | 61 | 257 | 0.0 | 0.0 | 0.00 | 0.00 | 0.00 | 48 | 1026.3 |
| 20260906032710 | 62 | 257 | 0.0 | 0.0 | 0.00 | 0.00 | 0.00 | 46 | 1026.0 |
| 20260906032209 | 62 | 253 | 0.9 | 0.9 | 0.00 | 0.00 | 0.00 | 47 | 1026.3 |
| 20260906031705 | 62 | 256 | 0.9 | 0.9 | 0.00 | 0.00 | 0.00 | 47 | 1025.8 |
| 20260906031200 | 62 | 259 | 0.0 | 0.0 | 0.00 | 0.00 | 0.00 | 46 | 1026.0 |
| 20260906030659 | 62 | 230 | 0.9 | 1.7 | 0.00 | 0.00 | 0.00 | 46 | 1025.7 |
| 20260906030155 | 63 | 257 | 0.9 | 0.9 | 0.00 | 0.00 | 0.00 | 45 | 1025.8 |
| 20260906025653 | 63 | 260 | 0.0 | 0.9 | 0.00 | 0.00 | 0.00 | 44 | 1025.5 |
| 20260906025148 | 63 | 244 | 0.9 | 0.9 | 0.00 | 0.00 | 0.00 | 45 | 1025.7 |
| 20260906024642 | 63 | 267 | 0.0 | 0.0 | 0.00 | 0.00 | 0.00 | 50 | 1025.4 |
| 20260906024136 | 64 | 269 | 0.9 | 0.9 | 0.00 | 0.00 | 0.00 | 49 | 1025.2 |
| 20260906023633 | 64 | 252 | 0.9 | 0.9 | 0.00 | 0.00 | 0.00 | 43 | 1025.4 |
| 20260906023132 | 64 | 239 | 0.9 | 1.7 | 0.00 | 0.00 | 0.00 | 45 | 1025.3 |
| 20260906022627 | 65 | 275 | 0.0 | 0.0 | 0.00 | 0.00 | 0.00 | 50 | 1025.2 |
| 20260906022123 | 65 | 273 | 0.9 | 0.9 | 0.00 | 0.00 | 0.00 | 49 | 1025.0 |
| 20260906021619 | 66 | 272 | 0.9 | 0.9 | 0.00 | 0.00 | 0.00 | 47 | 1025.2 |
| 20260906021117 | 67 | 262 | 0.0 | 0.0 | 0.00 | 0.00 | 0.00 | 46 | 1025.2 |
| 20260906020617 | 67 | 288 | 0.9 | 0.9 | 0.00 | 0.00 | 0.00 | 45 | 1024.8 |
| 20260906020112 | 70 | 287 | 0.9 | 0.9 | 0.00 | 0.00 | 0.00 | 45 | 1024.8 |
| 20260906015606 | 71 | 238 | 1.7 | 1.7 | 0.00 | 0.00 | 0.00 | 34 | 1024.4 |
| 20260906015105 | 71 | 193 | 4.3 | 5.2 | 0.00 | 0.00 | 0.00 | 34 | 1024.3 |
| 20260906014600 | 71 | 207 | 2.6 | 2.6 | 0.00 | 0.00 | 0.00 | 34 | 1024.4 |
| 20260906014056 | 72 | 187 | 3.5 | 4.3 | 0.00 | 0.00 | 0.00 | 33 | 1024.4 |
| 20260906013551 | 72 | 170 | 4.3 | 6.1 | 0.00 | 0.00 | 0.00 | 32 | 1024.4 |
| 20260906013047 | 72 | 226 | 1.7 | 1.7 | 0.00 | 0.00 | 0.00 | 33 | 1024.2 |
| 20260906012542 | 73 | 259 | 0.9 | 1.7 | 0.00 | 0.00 | 0.00 | 33 | 1024.2 |
| 20260906012041 | 73 | 233 | 1.7 | 1.7 | 0.00 | 0.00 | 0.00 | 32 | 1024.2 |
| 20260906011538 | 74 | 247 | 0.9 | 0.9 | 0.00 | 0.00 | 0.00 | 32 | 1024.3 |
| 20260906011037 | 75 | 223 | 1.7 | 1.7 | 0.00 | 0.00 | 0.00 | 31 | 1024.4 |
| 20260906010533 | 75 | 256 | 0.9 | 0.9 | 0.00 | 0.00 | 0.00 | 31 | 1024.4 |
| 20260906010029 | 77 | 248 | 0.9 | 0.9 | 0.00 | 0.00 | 0.00 | 29 | 1024.3 |
| 20260906005528 | 77 | 249 | 0.9 | 0.9 | 0.00 | 0.00 | 0.00 | 28 | 1024.5 |
| 20260906005027 | 78 | 217 | 2.6 | 4.3 | 0.00 | 0.00 | 0.00 | 28 | 1024.3 |
| 20260906004526 | 78 | 237 | 0.9 | 1.7 | 0.00 | 0.00 | 0.00 | 27 | 1024.4 |
| 20260906004021 | 79 | 260 | 0.9 | 1.7 | 0.00 | 0.00 | 0.00 | 28 | 1024.3 |
| 20260906003517 | 79 | 237 | 2.6 | 2.6 | 0.00 | 0.00 | 0.00 | 27 | 1024.5 |
| 20260906003013 | 79 | 260 | 0.9 | 1.7 | 0.00 | 0.00 | 0.00 | 26 | 1024.3 |
| 20260906002507 | 80 | 256 | 1.7 | 1.7 | 0.00 | 0.00 | 0.00 | 26 | 1024.4 |
| 20260906002002 | 81 | 254 | 3.5 | 5.2 | 0.00 | 0.00 | 0.00 | 25 | 1024.2 |
| 20260906001458 | 82 | 254 | 0.9 | 0.9 | 0.00 | 0.00 | 0.00 | 25 | 1024.2 |
| 20260906000952 | 81 | 258 | 0.9 | 1.7 | 0.00 | 0.00 | 0.00 | 25 | 1024.2 |
| 20260906000448 | 82 | 222 | 3.5 | 5.2 | 0.00 | 0.00 | 0.00 | 24 | 1024.0 |
| 20260905235941 | 83 | 280 | 1.7 | 1.7 | 0.00 | 0.00 | 0.00 | 24 | 1024.0 |
| 20260905235436 | 82 | 300 | 2.6 | 2.6 | 0.00 | 0.00 | 0.00 | 25 | 1023.9 |
| 20260905234931 | 82 | 274 | 2.6 | 2.6 | 0.00 | 0.00 | 0.00 | 25 | 1024.0 |
| 20260905234427 | 82 | 265 | 2.6 | 4.3 | 0.00 | 0.00 | 0.00 | 25 | 1023.9 |
| 20260905233921 | 82 | 218 | 3.5 | 5.2 | 0.00 | 0.00 | 0.00 | 26 | 1024.0 |
| 20260905233416 | 81 | 237 | 1.7 | 1.7 | 0.00 | 0.00 | 0.00 | 25 | 1024.2 |
| 20260905232915 | 81 | 230 | 4.3 | 5.2 | 0.00 | 0.00 | 0.00 | 25 | 1023.9 |
| 20260905232412 | 81 | 258 | 3.5 | 5.2 | 0.00 | 0.00 | 0.00 | 25 | 1023.9 |
| 20260905231907 | 81 | 233 | 3.5 | 5.2 | 0.00 | 0.00 | 0.00 | 25 | 1023.9 |
| 20260905231403 | 82 | 272 | 4.3 | 5.2 | 0.00 | 0.00 | 0.00 | 25 | 1023.5 |
| 20260905230859 | 82 | 225 | 2.6 | 4.3 | 0.00 | 0.00 | 0.00 | 25 | 1023.8 |
| 20260905230356 | 82 | 253 | 3.5 | 5.2 | 0.00 | 0.00 | 0.00 | 25 | 1023.7 |